sensor_id;sensor_type;location;lat;lon;timestamp;P1;durP1;ratioP1;P2;durP2;ratioP2
61336;SDS011;47212;41.326;2.104;2023-05-16T00:01:54;11.18;;;8.23;;
61336;SDS011;47212;41.326;2.104;2023-05-16T00:06:56;11.88;;;7.53;;
61336;SDS011;47212;41.326;2.104;2023-05-16T00:11:58;11.93;;;8.48;;
61336;SDS011;47212;41.326;2.104;2023-05-16T00:17:00;11.00;;;7.70;;
61336;SDS011;47212;41.326;2.104;2023-05-16T00:22:05;12.10;;;8.25;;
61336;SDS011;47212;41.326;2.104;2023-05-16T00:27:07;10.75;;;6.50;;
61336;SDS011;47212;41.326;2.104;2023-05-16T00:32:09;9.65;;;7.32;;
61336;SDS011;47212;41.326;2.104;2023-05-16T00:37:12;11.55;;;8.18;;
61336;SDS011;47212;41.326;2.104;2023-05-16T00:42:17;10.13;;;7.05;;
61336;SDS011;47212;41.326;2.104;2023-05-16T00:47:20;8.98;;;6.60;;
61336;SDS011;47212;41.326;2.104;2023-05-16T00:52:25;7.95;;;6.32;;
61336;SDS011;47212;41.326;2.104;2023-05-16T00:57:27;9.52;;;5.90;;
61336;SDS011;47212;41.326;2.104;2023-05-16T01:05:26;8.20;;;6.38;;
61336;SDS011;47212;41.326;2.104;2023-05-16T01:10:31;11.10;;;6.88;;
61336;SDS011;47212;41.326;2.104;2023-05-16T01:15:55;7.85;;;6.15;;
61336;SDS011;47212;41.326;2.104;2023-05-16T01:21:08;11.23;;;6.40;;
61336;SDS011;47212;41.326;2.104;2023-05-16T01:31:26;6.60;;;4.90;;
61336;SDS011;47212;41.326;2.104;2023-05-16T01:42:18;8.48;;;6.03;;
61336;SDS011;47212;41.326;2.104;2023-05-16T01:47:25;9.55;;;7.60;;
61336;SDS011;47212;41.326;2.104;2023-05-16T01:52:31;9.93;;;7.55;;
61336;SDS011;47212;41.326;2.104;2023-05-16T01:57:43;13.23;;;7.30;;
61336;SDS011;47212;41.326;2.104;2023-05-16T02:02:47;9.60;;;7.00;;
61336;SDS011;47212;41.326;2.104;2023-05-16T02:07:51;11.13;;;6.00;;
61336;SDS011;47212;41.326;2.104;2023-05-16T02:12:53;11.60;;;7.13;;
61336;SDS011;47212;41.326;2.104;2023-05-16T02:18:42;12.02;;;7.82;;
61336;SDS011;47212;41.326;2.104;2023-05-16T02:23:46;11.27;;;7.78;;
61336;SDS011;47212;41.326;2.104;2023-05-16T02:28:50;9.57;;;6.97;;
61336;SDS011;47212;41.326;2.104;2023-05-16T02:33:55;7.78;;;6.28;;
61336;SDS011;47212;41.326;2.104;2023-05-16T02:38:57;10.60;;;7.78;;
61336;SDS011;47212;41.326;2.104;2023-05-16T02:49:02;7.07;;;5.78;;
61336;SDS011;47212;41.326;2.104;2023-05-16T02:59:10;9.18;;;6.32;;
61336;SDS011;47212;41.326;2.104;2023-05-16T03:04:13;9.43;;;5.43;;
61336;SDS011;47212;41.326;2.104;2023-05-16T03:09:16;6.63;;;4.90;;
61336;SDS011;47212;41.326;2.104;2023-05-16T03:14:18;7.00;;;4.57;;
61336;SDS011;47212;41.326;2.104;2023-05-16T03:19:20;7.10;;;3.88;;
61336;SDS011;47212;41.326;2.104;2023-05-16T03:24:22;4.07;;;2.72;;
61336;SDS011;47212;41.326;2.104;2023-05-16T03:29:25;3.88;;;2.30;;
61336;SDS011;47212;41.326;2.104;2023-05-16T03:34:29;3.90;;;2.30;;
61336;SDS011;47212;41.326;2.104;2023-05-16T03:39:32;2.97;;;1.90;;
61336;SDS011;47212;41.326;2.104;2023-05-16T03:44:34;4.03;;;2.17;;
61336;SDS011;47212;41.326;2.104;2023-05-16T03:49:36;3.80;;;1.77;;
61336;SDS011;47212;41.326;2.104;2023-05-16T03:54:38;2.38;;;1.45;;
61336;SDS011;47212;41.326;2.104;2023-05-16T04:04:42;3.05;;;1.77;;
61336;SDS011;47212;41.326;2.104;2023-05-16T04:09:44;2.35;;;1.60;;
61336;SDS011;47212;41.326;2.104;2023-05-16T04:19:49;1.85;;;1.33;;
61336;SDS011;47212;41.326;2.104;2023-05-16T04:24:53;2.10;;;1.30;;
61336;SDS011;47212;41.326;2.104;2023-05-16T04:29:55;3.25;;;1.85;;
61336;SDS011;47212;41.326;2.104;2023-05-16T04:34:57;4.18;;;1.75;;
61336;SDS011;47212;41.326;2.104;2023-05-16T04:40:00;1.70;;;1.35;;
61336;SDS011;47212;41.326;2.104;2023-05-16T04:45:10;1.92;;;1.20;;
61336;SDS011;47212;41.326;2.104;2023-05-16T04:50:14;1.85;;;1.38;;
61336;SDS011;47212;41.326;2.104;2023-05-16T04:55:21;2.42;;;1.20;;
61336;SDS011;47212;41.326;2.104;2023-05-16T05:00:24;4.25;;;1.80;;
61336;SDS011;47212;41.326;2.104;2023-05-16T05:05:27;3.70;;;1.40;;
61336;SDS011;47212;41.326;2.104;2023-05-16T05:10:29;2.17;;;1.50;;
61336;SDS011;47212;41.326;2.104;2023-05-16T05:15:32;4.05;;;1.63;;
61336;SDS011;47212;41.326;2.104;2023-05-16T05:25:36;3.97;;;1.85;;
61336;SDS011;47212;41.326;2.104;2023-05-16T05:30:39;1.85;;;1.38;;
61336;SDS011;47212;41.326;2.104;2023-05-16T05:35:43;2.15;;;1.00;;
61336;SDS011;47212;41.326;2.104;2023-05-16T05:40:46;2.42;;;1.42;;
61336;SDS011;47212;41.326;2.104;2023-05-16T05:45:48;2.35;;;1.30;;
61336;SDS011;47212;41.326;2.104;2023-05-16T05:50:51;2.10;;;1.42;;
61336;SDS011;47212;41.326;2.104;2023-05-16T05:55:56;3.10;;;1.42;;
61336;SDS011;47212;41.326;2.104;2023-05-16T06:50:25;3.75;;;2.47;;
61336;SDS011;47212;41.326;2.104;2023-05-16T06:55:27;6.10;;;3.90;;
61336;SDS011;47212;41.326;2.104;2023-05-16T07:00:29;4.97;;;2.90;;
61336;SDS011;47212;41.326;2.104;2023-05-16T07:10:34;5.05;;;2.08;;
61336;SDS011;47212;41.326;2.104;2023-05-16T07:15:36;6.50;;;2.53;;
61336;SDS011;47212;41.326;2.104;2023-05-16T07:20:38;4.57;;;2.90;;
61336;SDS011;47212;41.326;2.104;2023-05-16T07:25:40;3.88;;;1.83;;
61336;SDS011;47212;41.326;2.104;2023-05-16T07:30:43;2.72;;;1.77;;
61336;SDS011;47212;41.326;2.104;2023-05-16T07:35:45;4.47;;;1.70;;
61336;SDS011;47212;41.326;2.104;2023-05-16T07:40:49;2.53;;;1.70;;
61336;SDS011;47212;41.326;2.104;2023-05-16T07:45:51;2.17;;;1.40;;
61336;SDS011;47212;41.326;2.104;2023-05-16T07:50:54;3.25;;;1.70;;
61336;SDS011;47212;41.326;2.104;2023-05-16T07:55:57;5.40;;;2.42;;
61336;SDS011;47212;41.326;2.104;2023-05-16T08:01:02;10.23;;;2.38;;
61336;SDS011;47212;41.326;2.104;2023-05-16T08:06:04;3.88;;;2.20;;
61336;SDS011;47212;41.326;2.104;2023-05-16T08:11:07;3.45;;;2.40;;
61336;SDS011;47212;41.326;2.104;2023-05-16T08:16:09;3.47;;;1.95;;
61336;SDS011;47212;41.326;2.104;2023-05-16T08:23:10;2.30;;;1.52;;
61336;SDS011;47212;41.326;2.104;2023-05-16T08:28:12;1.85;;;1.20;;
61336;SDS011;47212;41.326;2.104;2023-05-16T08:33:14;10.57;;;1.92;;
61336;SDS011;47212;41.326;2.104;2023-05-16T08:38:17;2.20;;;1.60;;
61336;SDS011;47212;41.326;2.104;2023-05-16T08:43:19;4.50;;;1.95;;
61336;SDS011;47212;41.326;2.104;2023-05-16T08:48:22;2.38;;;1.58;;
61336;SDS011;47212;41.326;2.104;2023-05-16T08:53:25;4.97;;;1.67;;
61336;SDS011;47212;41.326;2.104;2023-05-16T08:58:36;2.22;;;1.55;;
61336;SDS011;47212;41.326;2.104;2023-05-16T09:03:40;4.40;;;1.60;;
61336;SDS011;47212;41.326;2.104;2023-05-16T09:08:43;2.53;;;1.70;;
61336;SDS011;47212;41.326;2.104;2023-05-16T09:13:47;6.03;;;1.70;;
61336;SDS011;47212;41.326;2.104;2023-05-16T09:18:53;2.47;;;1.48;;
61336;SDS011;47212;41.326;2.104;2023-05-16T09:24:08;2.93;;;1.77;;
61336;SDS011;47212;41.326;2.104;2023-05-16T09:29:10;1.83;;;1.38;;
61336;SDS011;47212;41.326;2.104;2023-05-16T09:34:13;3.40;;;1.60;;
61336;SDS011;47212;41.326;2.104;2023-05-16T09:39:16;2.85;;;1.42;;
61336;SDS011;47212;41.326;2.104;2023-05-16T09:44:18;2.33;;;1.50;;
61336;SDS011;47212;41.326;2.104;2023-05-16T09:49:20;6.90;;;2.45;;
61336;SDS011;47212;41.326;2.104;2023-05-16T09:54:31;6.90;;;2.22;;
61336;SDS011;47212;41.326;2.104;2023-05-16T09:59:38;5.07;;;1.70;;
61336;SDS011;47212;41.326;2.104;2023-05-16T10:04:41;2.92;;;1.80;;
61336;SDS011;47212;41.326;2.104;2023-05-16T10:09:43;6.97;;;2.00;;
61336;SDS011;47212;41.326;2.104;2023-05-16T10:14:47;2.20;;;1.67;;
61336;SDS011;47212;41.326;2.104;2023-05-16T10:19:55;5.80;;;2.28;;
61336;SDS011;47212;41.326;2.104;2023-05-16T10:25:07;7.25;;;2.13;;
61336;SDS011;47212;41.326;2.104;2023-05-16T10:30:11;8.18;;;2.20;;
61336;SDS011;47212;41.326;2.104;2023-05-16T10:35:17;7.32;;;2.35;;
61336;SDS011;47212;41.326;2.104;2023-05-16T10:40:20;3.90;;;2.20;;
61336;SDS011;47212;41.326;2.104;2023-05-16T10:45:24;3.90;;;2.33;;
61336;SDS011;47212;41.326;2.104;2023-05-16T10:50:42;4.45;;;2.67;;
61336;SDS011;47212;41.326;2.104;2023-05-16T10:56:09;6.83;;;2.50;;
61336;SDS011;47212;41.326;2.104;2023-05-16T11:06:31;6.57;;;3.00;;
61336;SDS011;47212;41.326;2.104;2023-05-16T11:11:57;4.85;;;2.90;;
61336;SDS011;47212;41.326;2.104;2023-05-16T11:17:13;3.97;;;2.30;;
61336;SDS011;47212;41.326;2.104;2023-05-16T11:23:33;4.57;;;2.97;;
61336;SDS011;47212;41.326;2.104;2023-05-16T11:28:28;6.65;;;3.35;;
61336;SDS011;47212;41.326;2.104;2023-05-16T11:33:30;4.32;;;2.25;;
61336;SDS011;47212;41.326;2.104;2023-05-16T11:38:39;7.00;;;2.17;;
61336;SDS011;47212;41.326;2.104;2023-05-16T11:43:44;3.58;;;2.17;;
61336;SDS011;47212;41.326;2.104;2023-05-16T11:48:48;3.58;;;1.95;;
61336;SDS011;47212;41.326;2.104;2023-05-16T11:53:50;4.80;;;1.80;;
61336;SDS011;47212;41.326;2.104;2023-05-16T11:58:53;3.53;;;2.33;;
61336;SDS011;47212;41.326;2.104;2023-05-16T12:03:58;5.25;;;2.10;;
61336;SDS011;47212;41.326;2.104;2023-05-16T12:10:33;3.65;;;1.73;;
61336;SDS011;47212;41.326;2.104;2023-05-16T12:15:35;4.05;;;1.55;;
61336;SDS011;47212;41.326;2.104;2023-05-16T12:20:37;2.38;;;1.55;;
61336;SDS011;47212;41.326;2.104;2023-05-16T12:25:44;3.30;;;1.67;;
61336;SDS011;47212;41.326;2.104;2023-05-16T12:30:47;2.60;;;1.70;;
61336;SDS011;47212;41.326;2.104;2023-05-16T12:35:49;4.30;;;1.80;;
61336;SDS011;47212;41.326;2.104;2023-05-16T12:40:56;3.40;;;1.75;;
61336;SDS011;47212;41.326;2.104;2023-05-16T12:45:59;5.35;;;3.60;;
61336;SDS011;47212;41.326;2.104;2023-05-16T12:51:11;3.93;;;2.30;;
61336;SDS011;47212;41.326;2.104;2023-05-16T12:56:17;4.90;;;1.70;;
61336;SDS011;47212;41.326;2.104;2023-05-16T13:01:21;3.25;;;1.67;;
61336;SDS011;47212;41.326;2.104;2023-05-16T13:06:23;3.78;;;1.60;;
61336;SDS011;47212;41.326;2.104;2023-05-16T13:11:25;3.35;;;1.70;;
61336;SDS011;47212;41.326;2.104;2023-05-16T13:16:27;4.20;;;2.40;;
61336;SDS011;47212;41.326;2.104;2023-05-16T13:21:29;2.35;;;1.70;;
61336;SDS011;47212;41.326;2.104;2023-05-16T13:26:32;2.85;;;1.80;;
61336;SDS011;47212;41.326;2.104;2023-05-16T13:31:35;3.78;;;1.50;;
61336;SDS011;47212;41.326;2.104;2023-05-16T13:36:43;3.47;;;1.63;;
61336;SDS011;47212;41.326;2.104;2023-05-16T13:41:50;4.13;;;1.80;;
61336;SDS011;47212;41.326;2.104;2023-05-16T13:46:52;2.00;;;1.58;;
61336;SDS011;47212;41.326;2.104;2023-05-16T13:51:54;5.35;;;1.75;;
61336;SDS011;47212;41.326;2.104;2023-05-16T13:56:59;4.32;;;1.52;;
61336;SDS011;47212;41.326;2.104;2023-05-16T14:02:02;2.50;;;1.60;;
61336;SDS011;47212;41.326;2.104;2023-05-16T14:07:05;3.72;;;1.70;;
61336;SDS011;47212;41.326;2.104;2023-05-16T14:12:07;2.65;;;1.83;;
61336;SDS011;47212;41.326;2.104;2023-05-16T14:17:10;3.25;;;1.50;;
61336;SDS011;47212;41.326;2.104;2023-05-16T14:22:12;2.45;;;1.50;;
61336;SDS011;47212;41.326;2.104;2023-05-16T14:27:16;2.40;;;1.40;;
61336;SDS011;47212;41.326;2.104;2023-05-16T14:32:20;8.40;;;1.70;;
61336;SDS011;47212;41.326;2.104;2023-05-16T14:37:23;4.55;;;1.88;;
61336;SDS011;47212;41.326;2.104;2023-05-16T14:42:25;4.03;;;1.88;;
61336;SDS011;47212;41.326;2.104;2023-05-16T14:47:27;4.18;;;1.77;;
61336;SDS011;47212;41.326;2.104;2023-05-16T14:52:29;4.85;;;1.85;;
61336;SDS011;47212;41.326;2.104;2023-05-16T14:57:31;3.13;;;2.00;;
61336;SDS011;47212;41.326;2.104;2023-05-16T15:02:33;4.90;;;2.00;;
61336;SDS011;47212;41.326;2.104;2023-05-16T15:07:35;2.97;;;1.63;;
61336;SDS011;47212;41.326;2.104;2023-05-16T15:12:38;3.45;;;1.80;;
61336;SDS011;47212;41.326;2.104;2023-05-16T15:17:41;5.30;;;1.65;;
61336;SDS011;47212;41.326;2.104;2023-05-16T15:22:44;2.78;;;1.92;;
61336;SDS011;47212;41.326;2.104;2023-05-16T15:27:46;5.63;;;2.17;;
61336;SDS011;47212;41.326;2.104;2023-05-16T15:32:48;5.78;;;1.90;;
61336;SDS011;47212;41.326;2.104;2023-05-16T15:37:50;7.93;;;1.58;;
61336;SDS011;47212;41.326;2.104;2023-05-16T15:42:53;3.83;;;1.75;;
61336;SDS011;47212;41.326;2.104;2023-05-16T15:47:55;4.55;;;1.80;;
61336;SDS011;47212;41.326;2.104;2023-05-16T15:52:57;3.90;;;2.10;;
61336;SDS011;47212;41.326;2.104;2023-05-16T15:57:59;4.97;;;1.83;;
61336;SDS011;47212;41.326;2.104;2023-05-16T16:03:01;4.07;;;1.70;;
61336;SDS011;47212;41.326;2.104;2023-05-16T16:08:06;4.05;;;1.80;;
61336;SDS011;47212;41.326;2.104;2023-05-16T16:13:08;1.67;;;1.38;;
61336;SDS011;47212;41.326;2.104;2023-05-16T16:18:10;3.60;;;1.63;;
61336;SDS011;47212;41.326;2.104;2023-05-16T16:23:14;3.83;;;1.70;;
61336;SDS011;47212;41.326;2.104;2023-05-16T16:28:16;5.32;;;2.13;;
61336;SDS011;47212;41.326;2.104;2023-05-16T16:33:19;9.23;;;3.20;;
61336;SDS011;47212;41.326;2.104;2023-05-16T16:38:21;5.47;;;2.90;;
61336;SDS011;47212;41.326;2.104;2023-05-16T16:43:23;5.88;;;2.60;;
61336;SDS011;47212;41.326;2.104;2023-05-16T16:48:25;4.80;;;2.70;;
61336;SDS011;47212;41.326;2.104;2023-05-16T16:53:28;4.82;;;2.50;;
61336;SDS011;47212;41.326;2.104;2023-05-16T16:58:30;4.97;;;2.65;;
61336;SDS011;47212;41.326;2.104;2023-05-16T17:03:32;8.05;;;4.15;;
61336;SDS011;47212;41.326;2.104;2023-05-16T17:08:35;7.80;;;4.45;;
61336;SDS011;47212;41.326;2.104;2023-05-16T17:13:37;9.55;;;4.95;;
61336;SDS011;47212;41.326;2.104;2023-05-16T17:18:42;10.18;;;5.93;;
61336;SDS011;47212;41.326;2.104;2023-05-16T17:23:44;8.95;;;6.75;;
61336;SDS011;47212;41.326;2.104;2023-05-16T17:28:47;10.85;;;5.47;;
61336;SDS011;47212;41.326;2.104;2023-05-16T17:33:50;7.70;;;4.47;;
61336;SDS011;47212;41.326;2.104;2023-05-16T17:38:52;6.90;;;5.20;;
61336;SDS011;47212;41.326;2.104;2023-05-16T17:43:54;4.97;;;3.42;;
61336;SDS011;47212;41.326;2.104;2023-05-16T17:48:56;5.10;;;2.92;;
61336;SDS011;47212;41.326;2.104;2023-05-16T17:53:58;4.00;;;2.83;;
61336;SDS011;47212;41.326;2.104;2023-05-16T17:59:00;6.57;;;3.03;;
61336;SDS011;47212;41.326;2.104;2023-05-16T18:04:06;6.15;;;3.42;;
61336;SDS011;47212;41.326;2.104;2023-05-16T18:09:09;6.25;;;2.80;;
61336;SDS011;47212;41.326;2.104;2023-05-16T18:14:12;8.10;;;3.63;;
61336;SDS011;47212;41.326;2.104;2023-05-16T18:19:15;6.75;;;3.83;;
61336;SDS011;47212;41.326;2.104;2023-05-16T18:24:17;4.88;;;2.80;;
61336;SDS011;47212;41.326;2.104;2023-05-16T18:29:22;4.22;;;2.30;;
61336;SDS011;47212;41.326;2.104;2023-05-16T18:34:25;4.38;;;2.53;;
61336;SDS011;47212;41.326;2.104;2023-05-16T18:39:27;8.70;;;3.50;;
61336;SDS011;47212;41.326;2.104;2023-05-16T18:44:29;6.30;;;2.70;;
61336;SDS011;47212;41.326;2.104;2023-05-16T18:49:34;5.70;;;2.33;;
61336;SDS011;47212;41.326;2.104;2023-05-16T18:54:39;6.78;;;2.80;;
61336;SDS011;47212;41.326;2.104;2023-05-16T18:59:42;4.75;;;2.10;;
61336;SDS011;47212;41.326;2.104;2023-05-16T19:04:44;3.90;;;1.95;;
61336;SDS011;47212;41.326;2.104;2023-05-16T19:09:46;7.35;;;2.25;;
61336;SDS011;47212;41.326;2.104;2023-05-16T19:14:49;3.45;;;2.03;;
61336;SDS011;47212;41.326;2.104;2023-05-16T19:19:52;6.53;;;2.08;;
61336;SDS011;47212;41.326;2.104;2023-05-16T19:24:54;7.93;;;2.22;;
61336;SDS011;47212;41.326;2.104;2023-05-16T19:29:56;5.45;;;2.25;;
61336;SDS011;47212;41.326;2.104;2023-05-16T19:34:58;3.00;;;2.10;;
61336;SDS011;47212;41.326;2.104;2023-05-16T19:40:01;6.80;;;2.40;;
61336;SDS011;47212;41.326;2.104;2023-05-16T19:45:07;7.00;;;2.60;;
61336;SDS011;47212;41.326;2.104;2023-05-16T19:50:11;9.00;;;4.20;;
61336;SDS011;47212;41.326;2.104;2023-05-16T19:55:13;6.85;;;3.00;;
61336;SDS011;47212;41.326;2.104;2023-05-16T20:00:16;12.70;;;3.22;;
61336;SDS011;47212;41.326;2.104;2023-05-16T20:05:19;5.20;;;2.25;;
61336;SDS011;47212;41.326;2.104;2023-05-16T20:10:24;6.13;;;2.67;;
61336;SDS011;47212;41.326;2.104;2023-05-16T20:15:26;8.50;;;5.70;;
61336;SDS011;47212;41.326;2.104;2023-05-16T20:20:28;5.93;;;2.80;;
61336;SDS011;47212;41.326;2.104;2023-05-16T20:25:31;4.28;;;2.45;;
61336;SDS011;47212;41.326;2.104;2023-05-16T20:30:33;5.93;;;2.20;;
61336;SDS011;47212;41.326;2.104;2023-05-16T20:35:35;3.53;;;1.90;;
61336;SDS011;47212;41.326;2.104;2023-05-16T20:40:37;3.75;;;2.10;;
61336;SDS011;47212;41.326;2.104;2023-05-16T20:45:40;5.30;;;2.40;;
61336;SDS011;47212;41.326;2.104;2023-05-16T20:50:43;6.50;;;2.47;;
61336;SDS011;47212;41.326;2.104;2023-05-16T20:55:46;4.93;;;2.20;;
61336;SDS011;47212;41.326;2.104;2023-05-16T21:00:48;6.10;;;2.63;;
61336;SDS011;47212;41.326;2.104;2023-05-16T21:05:51;4.57;;;2.28;;
61336;SDS011;47212;41.326;2.104;2023-05-16T21:10:53;9.73;;;5.18;;
61336;SDS011;47212;41.326;2.104;2023-05-16T21:15:55;4.18;;;2.53;;
61336;SDS011;47212;41.326;2.104;2023-05-16T21:20:57;3.67;;;2.25;;
61336;SDS011;47212;41.326;2.104;2023-05-16T21:25:59;7.63;;;2.30;;
61336;SDS011;47212;41.326;2.104;2023-05-16T21:31:02;3.90;;;2.00;;
61336;SDS011;47212;41.326;2.104;2023-05-16T21:36:11;5.95;;;2.30;;
61336;SDS011;47212;41.326;2.104;2023-05-16T21:41:16;4.35;;;2.00;;
61336;SDS011;47212;41.326;2.104;2023-05-16T21:46:18;6.35;;;2.20;;
61336;SDS011;47212;41.326;2.104;2023-05-16T21:51:20;5.10;;;2.67;;
61336;SDS011;47212;41.326;2.104;2023-05-16T21:56:26;5.57;;;2.90;;
61336;SDS011;47212;41.326;2.104;2023-05-16T22:01:30;6.00;;;2.83;;
61336;SDS011;47212;41.326;2.104;2023-05-16T22:06:35;7.00;;;3.47;;
61336;SDS011;47212;41.326;2.104;2023-05-16T22:11:37;5.13;;;2.90;;
61336;SDS011;47212;41.326;2.104;2023-05-16T22:16:42;5.32;;;3.20;;
61336;SDS011;47212;41.326;2.104;2023-05-16T22:21:43;5.00;;;2.95;;
61336;SDS011;47212;41.326;2.104;2023-05-16T22:26:46;5.78;;;3.10;;
61336;SDS011;47212;41.326;2.104;2023-05-16T22:36:53;5.13;;;3.10;;
61336;SDS011;47212;41.326;2.104;2023-05-16T22:41:55;7.35;;;3.53;;
61336;SDS011;47212;41.326;2.104;2023-05-16T22:47:01;7.68;;;2.95;;
61336;SDS011;47212;41.326;2.104;2023-05-16T22:52:04;11.02;;;7.05;;
61336;SDS011;47212;41.326;2.104;2023-05-16T22:57:08;9.77;;;5.40;;
61336;SDS011;47212;41.326;2.104;2023-05-16T23:02:12;5.30;;;3.40;;
61336;SDS011;47212;41.326;2.104;2023-05-16T23:07:14;4.90;;;3.25;;
61336;SDS011;47212;41.326;2.104;2023-05-16T23:12:17;10.27;;;3.45;;
61336;SDS011;47212;41.326;2.104;2023-05-16T23:17:26;7.85;;;3.67;;
61336;SDS011;47212;41.326;2.104;2023-05-16T23:22:28;11.77;;;4.28;;
61336;SDS011;47212;41.326;2.104;2023-05-16T23:27:31;9.23;;;3.90;;
61336;SDS011;47212;41.326;2.104;2023-05-16T23:32:34;7.80;;;4.00;;
61336;SDS011;47212;41.326;2.104;2023-05-16T23:37:39;11.38;;;4.85;;
61336;SDS011;47212;41.326;2.104;2023-05-16T23:42:44;9.48;;;4.80;;
61336;SDS011;47212;41.326;2.104;2023-05-16T23:47:46;9.25;;;5.03;;
61336;SDS011;47212;41.326;2.104;2023-05-16T23:52:54;11.32;;;5.15;;
61336;SDS011;47212;41.326;2.104;2023-05-16T23:57:56;10.27;;;4.88;;
